Edgeworth, Pennsylvania
Current Conditions -  °F | °C
As of 10:51 PM on Sunday 25 Jan 2015 (Local Time) from KPIT Reporting Station
Moderate Snow Moderate Snow  
Wind Chill: 23°   Ceiling: 800
Heat Index: 30°   Visibility: 0.5mi
Dew Point: 29°   Wind: 7mph
Humidity: 96%   Direction: 40°NE
Pressure: 29.77"   Gusts: NA
Location:  40.5741°N, 80.1457°W
Report Text: KPIT 260351Z 04006KT 1/2SM R28R/6000VP6000FT SN BR OVC008 M01/M02 A2977 RMK AO2 SLP100 P0005 T10111017
Loading
Personal Weather Stations






























Interactive Weather Map New forecast layout! Learn more

10-Day Weather Forecast

Advertisements
Track Severe Weather on mobile